Crestline, Ohio
Current Conditions -  °F | °C
As of 10:52 AM on Wednesday 26 Nov 2014 (Local Time) from KMFD Reporting Station
Overcast Overcast  
Wind Chill: 27°   Ceiling: 2600
Heat Index: 32°   Visibility: 10mi
Dew Point: 24°   Wind: 5mph
Humidity: 73%   Direction: 350°N
Pressure: 30.11"   Gusts: NA
Location:  40.79°N, 82.74°W
Report Text: KMFD 261552Z 35004KT 10SM OVC026 00/M04 A3011 RMK AO2 SLP210 T00001044
Loading
Personal Weather Stations






























Interactive Weather Map New forecast layout! Learn more

10-Day Weather Forecast

Advertisements
Track Severe Weather on mobile